TAF LERI
LERI 280500Z 2806/2906 31014KT 9999 FEW040 TX14/2814Z TN06/2807Z TEMPO 2806/2809 31015G25KT TEMPO 2810/2816 31020G32KT BECMG 2816/2818 25008KT=
METAR LERI
LERI 280830Z 28010G23KT 230V330 9999 FEW036 10/M04 Q1014 NOSIG=
LERI 280800Z 26008KT 200V330 9999 FEW036 09/M03 Q1014 NOSIG=
LERI 280730Z 29012KT 260V330 9999 FEW040 08/M03 Q1014 NOSIG=
LERI 280700Z 29009KT 250V330 9999 FEW036 08/M03 Q1013 NOSIG=
LERI 280630Z 29010KT 260V330 9999 FEW047 08/M03 Q1013 NOSIG=
WC LERI
WS LERI
WV LERI